sensor_id;sensor_type;location;lat;lon;timestamp;P1;durP1;ratioP1;P2;durP2;ratioP2
59302;SDS011;45074;52.764;6.896;2022-07-01T00:00:01;5.97;;;1.60;;
59302;SDS011;45074;52.764;6.896;2022-07-01T00:02:28;4.35;;;1.45;;
59302;SDS011;45074;52.764;6.896;2022-07-01T00:04:54;5.53;;;1.70;;
59302;SDS011;45074;52.764;6.896;2022-07-01T00:07:20;7.20;;;1.75;;
59302;SDS011;45074;52.764;6.896;2022-07-01T00:09:46;4.35;;;1.40;;
59302;SDS011;45074;52.764;6.896;2022-07-01T00:12:12;3.75;;;1.42;;
59302;SDS011;45074;52.764;6.896;2022-07-01T00:14:37;5.90;;;1.80;;
59302;SDS011;45074;52.764;6.896;2022-07-01T00:17:04;2.78;;;1.63;;
59302;SDS011;45074;52.764;6.896;2022-07-01T00:19:30;4.80;;;1.90;;
59302;SDS011;45074;52.764;6.896;2022-07-01T00:21:56;7.25;;;2.08;;
59302;SDS011;45074;52.764;6.896;2022-07-01T00:24:21;4.70;;;2.15;;
59302;SDS011;45074;52.764;6.896;2022-07-01T00:26:47;3.72;;;1.90;;
59302;SDS011;45074;52.764;6.896;2022-07-01T00:29:14;3.85;;;1.90;;
59302;SDS011;45074;52.764;6.896;2022-07-01T00:31:39;5.18;;;1.80;;
59302;SDS011;45074;52.764;6.896;2022-07-01T00:34:05;3.60;;;1.92;;
59302;SDS011;45074;52.764;6.896;2022-07-01T00:36:31;5.05;;;2.03;;
59302;SDS011;45074;52.764;6.896;2022-07-01T00:38:57;4.88;;;2.17;;
59302;SDS011;45074;52.764;6.896;2022-07-01T00:41:23;4.35;;;2.00;;
59302;SDS011;45074;52.764;6.896;2022-07-01T00:43:49;5.72;;;2.05;;
59302;SDS011;45074;52.764;6.896;2022-07-01T00:46:14;3.40;;;2.00;;
59302;SDS011;45074;52.764;6.896;2022-07-01T00:48:40;4.30;;;2.05;;
59302;SDS011;45074;52.764;6.896;2022-07-01T00:51:06;4.35;;;1.95;;
59302;SDS011;45074;52.764;6.896;2022-07-01T00:53:32;4.50;;;2.17;;
59302;SDS011;45074;52.764;6.896;2022-07-01T00:55:58;4.55;;;2.00;;
59302;SDS011;45074;52.764;6.896;2022-07-01T00:58:28;4.88;;;1.90;;
59302;SDS011;45074;52.764;6.896;2022-07-01T01:00:55;3.30;;;1.75;;
59302;SDS011;45074;52.764;6.896;2022-07-01T01:03:21;4.38;;;1.63;;
59302;SDS011;45074;52.764;6.896;2022-07-01T01:05:47;3.30;;;1.60;;
59302;SDS011;45074;52.764;6.896;2022-07-01T01:08:14;3.30;;;1.50;;
59302;SDS011;45074;52.764;6.896;2022-07-01T01:10:40;4.45;;;1.40;;
59302;SDS011;45074;52.764;6.896;2022-07-01T01:13:07;4.47;;;1.55;;
59302;SDS011;45074;52.764;6.896;2022-07-01T01:15:34;3.63;;;1.50;;
59302;SDS011;45074;52.764;6.896;2022-07-01T01:17:59;4.32;;;1.42;;
59302;SDS011;45074;52.764;6.896;2022-07-01T01:20:25;1.83;;;1.30;;
59302;SDS011;45074;52.764;6.896;2022-07-01T01:22:51;2.30;;;1.10;;
59302;SDS011;45074;52.764;6.896;2022-07-01T01:25:17;2.17;;;1.13;;
59302;SDS011;45074;52.764;6.896;2022-07-01T01:27:43;1.85;;;1.10;;
59302;SDS011;45074;52.764;6.896;2022-07-01T01:30:10;3.38;;;1.00;;
59302;SDS011;45074;52.764;6.896;2022-07-01T01:32:37;2.92;;;1.20;;
59302;SDS011;45074;52.764;6.896;2022-07-01T01:35:04;2.10;;;1.20;;
59302;SDS011;45074;52.764;6.896;2022-07-01T01:37:30;1.27;;;1.10;;
59302;SDS011;45074;52.764;6.896;2022-07-01T01:39:56;2.10;;;1.20;;
59302;SDS011;45074;52.764;6.896;2022-07-01T01:42:23;3.92;;;1.40;;
59302;SDS011;45074;52.764;6.896;2022-07-01T01:44:48;3.22;;;1.20;;
59302;SDS011;45074;52.764;6.896;2022-07-01T01:47:14;2.83;;;1.20;;
59302;SDS011;45074;52.764;6.896;2022-07-01T01:49:40;2.40;;;1.15;;
59302;SDS011;45074;52.764;6.896;2022-07-01T01:52:05;2.65;;;1.20;;
59302;SDS011;45074;52.764;6.896;2022-07-01T01:54:31;4.03;;;1.42;;
59302;SDS011;45074;52.764;6.896;2022-07-01T01:56:57;3.53;;;1.33;;
59302;SDS011;45074;52.764;6.896;2022-07-01T01:59:23;2.45;;;1.20;;
59302;SDS011;45074;52.764;6.896;2022-07-01T02:01:49;2.08;;;1.20;;
59302;SDS011;45074;52.764;6.896;2022-07-01T02:04:15;3.85;;;1.45;;
59302;SDS011;45074;52.764;6.896;2022-07-01T02:06:41;1.98;;;1.20;;
59302;SDS011;45074;52.764;6.896;2022-07-01T02:09:07;2.50;;;1.50;;
59302;SDS011;45074;52.764;6.896;2022-07-01T02:11:34;4.97;;;1.95;;
59302;SDS011;45074;52.764;6.896;2022-07-01T02:14:01;3.83;;;2.40;;
59302;SDS011;45074;52.764;6.896;2022-07-01T02:16:26;4.10;;;2.50;;
59302;SDS011;45074;52.764;6.896;2022-07-01T02:18:52;5.65;;;2.78;;
59302;SDS011;45074;52.764;6.896;2022-07-01T02:21:18;10.18;;;7.15;;
59302;SDS011;45074;52.764;6.896;2022-07-01T02:23:44;10.65;;;7.22;;
59302;SDS011;45074;52.764;6.896;2022-07-01T02:26:09;13.15;;;10.02;;
59302;SDS011;45074;52.764;6.896;2022-07-01T02:28:35;17.17;;;12.68;;
59302;SDS011;45074;52.764;6.896;2022-07-01T02:31:01;19.52;;;16.10;;
59302;SDS011;45074;52.764;6.896;2022-07-01T02:33:30;22.13;;;17.45;;
59302;SDS011;45074;52.764;6.896;2022-07-01T02:35:56;21.83;;;16.92;;
59302;SDS011;45074;52.764;6.896;2022-07-01T02:38:21;20.42;;;16.00;;
59302;SDS011;45074;52.764;6.896;2022-07-01T02:40:47;20.00;;;15.57;;
59302;SDS011;45074;52.764;6.896;2022-07-01T02:43:12;20.73;;;15.43;;
59302;SDS011;45074;52.764;6.896;2022-07-01T02:45:41;19.80;;;15.20;;
59302;SDS011;45074;52.764;6.896;2022-07-01T02:48:06;20.80;;;15.32;;
59302;SDS011;45074;52.764;6.896;2022-07-01T02:50:32;21.40;;;15.75;;
59302;SDS011;45074;52.764;6.896;2022-07-01T02:52:58;20.60;;;15.23;;
59302;SDS011;45074;52.764;6.896;2022-07-01T02:55:24;22.70;;;15.38;;
59302;SDS011;45074;52.764;6.896;2022-07-01T02:57:50;18.88;;;14.80;;
59302;SDS011;45074;52.764;6.896;2022-07-01T03:00:16;22.55;;;16.45;;
59302;SDS011;45074;52.764;6.896;2022-07-01T03:02:43;22.15;;;16.40;;
59302;SDS011;45074;52.764;6.896;2022-07-01T03:05:09;20.17;;;15.13;;
59302;SDS011;45074;52.764;6.896;2022-07-01T03:07:38;19.85;;;15.23;;
59302;SDS011;45074;52.764;6.896;2022-07-01T03:10:05;18.52;;;13.88;;
59302;SDS011;45074;52.764;6.896;2022-07-01T03:12:31;19.05;;;14.40;;
59302;SDS011;45074;52.764;6.896;2022-07-01T03:15:02;18.38;;;13.68;;
59302;SDS011;45074;52.764;6.896;2022-07-01T03:17:33;17.20;;;12.63;;
59302;SDS011;45074;52.764;6.896;2022-07-01T03:20:00;16.38;;;12.23;;
59302;SDS011;45074;52.764;6.896;2022-07-01T03:22:27;15.77;;;11.93;;
59302;SDS011;45074;52.764;6.896;2022-07-01T03:24:53;17.40;;;11.68;;
59302;SDS011;45074;52.764;6.896;2022-07-01T03:27:19;15.57;;;11.35;;
59302;SDS011;45074;52.764;6.896;2022-07-01T03:29:46;16.58;;;11.38;;
59302;SDS011;45074;52.764;6.896;2022-07-01T03:32:12;16.15;;;10.93;;
59302;SDS011;45074;52.764;6.896;2022-07-01T03:34:38;16.67;;;11.07;;
59302;SDS011;45074;52.764;6.896;2022-07-01T03:37:06;15.52;;;10.85;;
59302;SDS011;45074;52.764;6.896;2022-07-01T03:39:33;15.45;;;10.68;;
59302;SDS011;45074;52.764;6.896;2022-07-01T03:42:00;15.90;;;11.27;;
59302;SDS011;45074;52.764;6.896;2022-07-01T03:44:26;17.00;;;12.27;;
59302;SDS011;45074;52.764;6.896;2022-07-01T03:46:52;16.35;;;12.15;;
59302;SDS011;45074;52.764;6.896;2022-07-01T03:49:18;17.50;;;12.43;;
59302;SDS011;45074;52.764;6.896;2022-07-01T03:51:44;16.55;;;12.75;;
59302;SDS011;45074;52.764;6.896;2022-07-01T03:54:10;18.73;;;13.50;;
59302;SDS011;45074;52.764;6.896;2022-07-01T03:56:54;15.32;;;11.70;;
59302;SDS011;45074;52.764;6.896;2022-07-01T03:59:27;20.42;;;14.30;;
59302;SDS011;45074;52.764;6.896;2022-07-01T04:01:55;20.52;;;14.45;;
59302;SDS011;45074;52.764;6.896;2022-07-01T04:04:21;20.35;;;14.65;;
59302;SDS011;45074;52.764;6.896;2022-07-01T04:06:48;20.23;;;15.07;;
59302;SDS011;45074;52.764;6.896;2022-07-01T04:09:15;20.20;;;14.82;;
59302;SDS011;45074;52.764;6.896;2022-07-01T04:11:42;22.30;;;15.50;;
59302;SDS011;45074;52.764;6.896;2022-07-01T04:14:09;21.02;;;15.25;;
59302;SDS011;45074;52.764;6.896;2022-07-01T04:16:36;21.60;;;16.15;;
59302;SDS011;45074;52.764;6.896;2022-07-01T04:19:02;21.75;;;16.05;;
59302;SDS011;45074;52.764;6.896;2022-07-01T04:21:28;24.70;;;16.88;;
59302;SDS011;45074;52.764;6.896;2022-07-01T04:24:12;24.77;;;17.75;;
59302;SDS011;45074;52.764;6.896;2022-07-01T04:26:41;24.58;;;17.30;;
59302;SDS011;45074;52.764;6.896;2022-07-01T04:29:07;27.48;;;18.27;;
59302;SDS011;45074;52.764;6.896;2022-07-01T04:31:34;26.98;;;19.08;;
59302;SDS011;45074;52.764;6.896;2022-07-01T04:34:00;27.27;;;18.88;;
59302;SDS011;45074;52.764;6.896;2022-07-01T04:36:26;29.38;;;19.33;;
59302;SDS011;45074;52.764;6.896;2022-07-01T04:38:52;27.70;;;19.25;;
59302;SDS011;45074;52.764;6.896;2022-07-01T04:41:17;25.90;;;18.77;;
59302;SDS011;45074;52.764;6.896;2022-07-01T04:44:02;26.75;;;19.10;;
59302;SDS011;45074;52.764;6.896;2022-07-01T04:46:28;26.63;;;19.15;;
59302;SDS011;45074;52.764;6.896;2022-07-01T04:48:54;27.85;;;19.58;;
59302;SDS011;45074;52.764;6.896;2022-07-01T04:51:19;27.67;;;18.25;;
59302;SDS011;45074;52.764;6.896;2022-07-01T04:53:46;27.92;;;20.17;;
59302;SDS011;45074;52.764;6.896;2022-07-01T04:56:11;25.92;;;18.80;;
59302;SDS011;45074;52.764;6.896;2022-07-01T04:58:37;27.30;;;19.35;;
59302;SDS011;45074;52.764;6.896;2022-07-01T05:01:03;26.08;;;19.13;;
59302;SDS011;45074;52.764;6.896;2022-07-01T05:03:28;26.35;;;18.85;;
59302;SDS011;45074;52.764;6.896;2022-07-01T05:05:54;26.52;;;19.23;;
59302;SDS011;45074;52.764;6.896;2022-07-01T05:08:20;26.58;;;19.55;;
59302;SDS011;45074;52.764;6.896;2022-07-01T05:10:46;29.50;;;20.70;;
59302;SDS011;45074;52.764;6.896;2022-07-01T05:13:12;25.45;;;18.75;;
59302;SDS011;45074;52.764;6.896;2022-07-01T05:15:37;28.73;;;21.17;;
59302;SDS011;45074;52.764;6.896;2022-07-01T05:18:03;28.30;;;21.35;;
59302;SDS011;45074;52.764;6.896;2022-07-01T05:20:48;29.05;;;20.92;;
59302;SDS011;45074;52.764;6.896;2022-07-01T05:23:32;28.65;;;21.23;;
59302;SDS011;45074;52.764;6.896;2022-07-01T05:25:57;28.67;;;20.25;;
59302;SDS011;45074;52.764;6.896;2022-07-01T05:28:23;29.70;;;20.88;;
59302;SDS011;45074;52.764;6.896;2022-07-01T05:30:48;30.70;;;22.00;;
59302;SDS011;45074;52.764;6.896;2022-07-01T05:33:14;30.00;;;21.50;;
59302;SDS011;45074;52.764;6.896;2022-07-01T05:35:40;30.88;;;22.92;;
59302;SDS011;45074;52.764;6.896;2022-07-01T05:38:05;30.98;;;22.77;;
59302;SDS011;45074;52.764;6.896;2022-07-01T05:40:31;29.92;;;21.60;;
59302;SDS011;45074;52.764;6.896;2022-07-01T05:42:56;30.77;;;22.10;;
59302;SDS011;45074;52.764;6.896;2022-07-01T05:45:23;32.13;;;23.42;;
59302;SDS011;45074;52.764;6.896;2022-07-01T05:47:48;30.45;;;22.85;;
59302;SDS011;45074;52.764;6.896;2022-07-01T05:50:14;32.35;;;23.08;;
59302;SDS011;45074;52.764;6.896;2022-07-01T05:52:40;30.30;;;22.38;;
59302;SDS011;45074;52.764;6.896;2022-07-01T05:55:09;30.13;;;22.00;;
59302;SDS011;45074;52.764;6.896;2022-07-01T05:57:35;30.73;;;21.98;;
59302;SDS011;45074;52.764;6.896;2022-07-01T06:00:01;29.27;;;22.17;;
59302;SDS011;45074;52.764;6.896;2022-07-01T06:02:28;31.23;;;21.85;;
59302;SDS011;45074;52.764;6.896;2022-07-01T06:04:53;28.75;;;21.52;;
59302;SDS011;45074;52.764;6.896;2022-07-01T06:07:19;32.10;;;21.80;;
59302;SDS011;45074;52.764;6.896;2022-07-01T06:09:44;29.33;;;21.77;;
59302;SDS011;45074;52.764;6.896;2022-07-01T06:12:10;29.75;;;20.45;;
59302;SDS011;45074;52.764;6.896;2022-07-01T06:14:36;27.23;;;20.92;;
59302;SDS011;45074;52.764;6.896;2022-07-01T06:17:03;29.70;;;21.50;;
59302;SDS011;45074;52.764;6.896;2022-07-01T06:19:29;29.17;;;20.67;;
59302;SDS011;45074;52.764;6.896;2022-07-01T06:21:55;27.88;;;21.02;;
59302;SDS011;45074;52.764;6.896;2022-07-01T06:24:21;28.65;;;21.27;;
59302;SDS011;45074;52.764;6.896;2022-07-01T06:26:47;30.23;;;21.38;;
59302;SDS011;45074;52.764;6.896;2022-07-01T06:29:13;27.52;;;20.95;;
59302;SDS011;45074;52.764;6.896;2022-07-01T06:31:38;27.55;;;19.55;;
59302;SDS011;45074;52.764;6.896;2022-07-01T06:34:04;28.50;;;20.85;;
59302;SDS011;45074;52.764;6.896;2022-07-01T06:36:30;26.10;;;19.90;;
59302;SDS011;45074;52.764;6.896;2022-07-01T06:38:56;28.67;;;21.42;;
59302;SDS011;45074;52.764;6.896;2022-07-01T06:41:21;28.10;;;21.35;;
59302;SDS011;45074;52.764;6.896;2022-07-01T06:43:57;28.45;;;21.02;;
59302;SDS011;45074;52.764;6.896;2022-07-01T06:46:24;26.83;;;21.23;;
59302;SDS011;45074;52.764;6.896;2022-07-01T06:48:50;30.20;;;22.58;;
59302;SDS011;45074;52.764;6.896;2022-07-01T06:51:16;30.42;;;23.42;;
59302;SDS011;45074;52.764;6.896;2022-07-01T06:53:42;29.02;;;21.98;;
59302;SDS011;45074;52.764;6.896;2022-07-01T06:56:10;29.05;;;22.48;;
59302;SDS011;45074;52.764;6.896;2022-07-01T06:58:36;28.02;;;22.50;;
59302;SDS011;45074;52.764;6.896;2022-07-01T07:01:03;28.10;;;21.98;;
59302;SDS011;45074;52.764;6.896;2022-07-01T07:03:29;28.15;;;21.70;;
59302;SDS011;45074;52.764;6.896;2022-07-01T07:05:54;27.55;;;21.60;;
59302;SDS011;45074;52.764;6.896;2022-07-01T07:08:20;27.25;;;21.70;;
59302;SDS011;45074;52.764;6.896;2022-07-01T07:10:46;31.20;;;21.25;;
59302;SDS011;45074;52.764;6.896;2022-07-01T07:13:12;28.60;;;21.75;;
59302;SDS011;45074;52.764;6.896;2022-07-01T07:15:37;30.17;;;22.50;;
59302;SDS011;45074;52.764;6.896;2022-07-01T07:18:06;28.45;;;21.83;;
59302;SDS011;45074;52.764;6.896;2022-07-01T07:20:33;30.00;;;21.45;;
59302;SDS011;45074;52.764;6.896;2022-07-01T07:22:59;30.10;;;22.40;;
59302;SDS011;45074;52.764;6.896;2022-07-01T07:25:25;28.48;;;21.52;;
59302;SDS011;45074;52.764;6.896;2022-07-01T07:27:51;30.00;;;22.95;;
59302;SDS011;45074;52.764;6.896;2022-07-01T07:30:16;28.85;;;21.80;;
59302;SDS011;45074;52.764;6.896;2022-07-01T07:32:43;29.80;;;22.45;;
59302;SDS011;45074;52.764;6.896;2022-07-01T07:35:09;32.13;;;22.52;;
59302;SDS011;45074;52.764;6.896;2022-07-01T07:37:35;29.63;;;22.27;;
59302;SDS011;45074;52.764;6.896;2022-07-01T07:40:01;27.25;;;22.83;;
59302;SDS011;45074;52.764;6.896;2022-07-01T07:42:28;27.75;;;22.40;;
59302;SDS011;45074;52.764;6.896;2022-07-01T07:44:54;27.00;;;21.35;;
59302;SDS011;45074;52.764;6.896;2022-07-01T07:47:20;28.33;;;21.58;;
59302;SDS011;45074;52.764;6.896;2022-07-01T07:49:46;26.83;;;21.08;;
59302;SDS011;45074;52.764;6.896;2022-07-01T07:52:12;27.13;;;20.67;;
59302;SDS011;45074;52.764;6.896;2022-07-01T07:54:38;28.60;;;21.65;;
59302;SDS011;45074;52.764;6.896;2022-07-01T07:57:04;27.27;;;20.25;;
59302;SDS011;45074;52.764;6.896;2022-07-01T07:59:30;26.58;;;20.45;;
59302;SDS011;45074;52.764;6.896;2022-07-01T08:01:56;26.65;;;19.88;;
59302;SDS011;45074;52.764;6.896;2022-07-01T08:04:22;26.83;;;20.95;;
59302;SDS011;45074;52.764;6.896;2022-07-01T08:06:47;27.65;;;21.02;;
59302;SDS011;45074;52.764;6.896;2022-07-01T08:09:13;24.33;;;18.90;;
59302;SDS011;45074;52.764;6.896;2022-07-01T08:11:39;29.48;;;19.73;;
59302;SDS011;45074;52.764;6.896;2022-07-01T08:14:05;26.80;;;19.58;;
59302;SDS011;45074;52.764;6.896;2022-07-01T08:16:30;25.10;;;18.65;;
59302;SDS011;45074;52.764;6.896;2022-07-01T08:18:56;24.73;;;18.83;;
59302;SDS011;45074;52.764;6.896;2022-07-01T08:21:22;24.75;;;18.77;;
59302;SDS011;45074;52.764;6.896;2022-07-01T08:23:48;24.27;;;18.73;;
59302;SDS011;45074;52.764;6.896;2022-07-01T08:26:14;24.83;;;18.67;;
59302;SDS011;45074;52.764;6.896;2022-07-01T08:28:41;26.70;;;18.75;;
59302;SDS011;45074;52.764;6.896;2022-07-01T08:31:07;23.98;;;17.85;;
59302;SDS011;45074;52.764;6.896;2022-07-01T08:33:33;22.25;;;17.42;;
59302;SDS011;45074;52.764;6.896;2022-07-01T08:35:59;23.27;;;17.10;;
59302;SDS011;45074;52.764;6.896;2022-07-01T08:38:25;22.88;;;17.02;;
59302;SDS011;45074;52.764;6.896;2022-07-01T08:40:50;22.17;;;15.32;;
59302;SDS011;45074;52.764;6.896;2022-07-01T08:43:16;19.48;;;14.05;;
59302;SDS011;45074;52.764;6.896;2022-07-01T08:45:42;20.45;;;15.32;;
59302;SDS011;45074;52.764;6.896;2022-07-01T08:48:08;20.77;;;14.70;;
59302;SDS011;45074;52.764;6.896;2022-07-01T08:50:37;17.85;;;13.55;;
59302;SDS011;45074;52.764;6.896;2022-07-01T08:55:30;19.17;;;13.60;;
59302;SDS011;45074;52.764;6.896;2022-07-01T08:57:57;18.77;;;13.27;;
59302;SDS011;45074;52.764;6.896;2022-07-01T09:00:29;17.85;;;13.13;;
59302;SDS011;45074;52.764;6.896;2022-07-01T09:03:00;18.95;;;13.25;;
59302;SDS011;45074;52.764;6.896;2022-07-01T09:05:27;15.88;;;12.15;;
59302;SDS011;45074;52.764;6.896;2022-07-01T09:07:55;17.42;;;11.88;;
59302;SDS011;45074;52.764;6.896;2022-07-01T09:10:22;17.45;;;11.07;;
59302;SDS011;45074;52.764;6.896;2022-07-01T09:12:49;15.48;;;11.15;;
59302;SDS011;45074;52.764;6.896;2022-07-01T09:15:18;16.33;;;11.05;;
59302;SDS011;45074;52.764;6.896;2022-07-01T09:17:56;16.05;;;11.68;;
59302;SDS011;45074;52.764;6.896;2022-07-01T09:20:32;15.40;;;11.20;;
59302;SDS011;45074;52.764;6.896;2022-07-01T09:23:08;17.92;;;9.85;;
59302;SDS011;45074;52.764;6.896;2022-07-01T09:25:37;13.75;;;8.80;;
59302;SDS011;45074;52.764;6.896;2022-07-01T09:28:09;12.85;;;9.02;;
59302;SDS011;45074;52.764;6.896;2022-07-01T09:35:57;13.32;;;8.63;;
59302;SDS011;45074;52.764;6.896;2022-07-01T09:38:24;13.05;;;8.60;;
59302;SDS011;45074;52.764;6.896;2022-07-01T09:40:52;13.68;;;9.35;;
59302;SDS011;45074;52.764;6.896;2022-07-01T09:43:20;13.43;;;9.32;;
59302;SDS011;45074;52.764;6.896;2022-07-01T09:45:53;13.35;;;9.32;;
59302;SDS011;45074;52.764;6.896;2022-07-01T09:48:20;14.38;;;9.18;;
59302;SDS011;45074;52.764;6.896;2022-07-01T09:50:47;13.45;;;9.32;;
59302;SDS011;45074;52.764;6.896;2022-07-01T09:53:13;14.65;;;9.18;;
59302;SDS011;45074;52.764;6.896;2022-07-01T09:55:40;16.70;;;9.25;;
59302;SDS011;45074;52.764;6.896;2022-07-01T09:58:06;17.73;;;8.55;;
59302;SDS011;45074;52.764;6.896;2022-07-01T10:00:31;11.70;;;7.55;;
59302;SDS011;45074;52.764;6.896;2022-07-01T10:02:59;12.45;;;7.03;;
59302;SDS011;45074;52.764;6.896;2022-07-01T10:05:26;9.82;;;6.47;;
59302;SDS011;45074;52.764;6.896;2022-07-01T10:08:05;12.23;;;7.00;;
59302;SDS011;45074;52.764;6.896;2022-07-01T10:10:49;12.18;;;6.63;;
59302;SDS011;45074;52.764;6.896;2022-07-01T10:13:35;11.48;;;6.35;;
59302;SDS011;45074;52.764;6.896;2022-07-01T10:16:01;11.13;;;6.68;;
59302;SDS011;45074;52.764;6.896;2022-07-01T10:18:28;11.52;;;6.38;;
59302;SDS011;45074;52.764;6.896;2022-07-01T10:20:55;12.20;;;7.32;;
59302;SDS011;45074;52.764;6.896;2022-07-01T10:23:23;14.32;;;7.53;;
59302;SDS011;45074;52.764;6.896;2022-07-01T10:25:50;14.68;;;7.95;;
59302;SDS011;45074;52.764;6.896;2022-07-01T10:31:05;12.93;;;7.70;;
59302;SDS011;45074;52.764;6.896;2022-07-01T10:33:34;11.38;;;7.47;;
59302;SDS011;45074;52.764;6.896;2022-07-01T10:36:05;10.43;;;6.38;;
59302;SDS011;45074;52.764;6.896;2022-07-01T10:38:31;11.43;;;6.13;;
59302;SDS011;45074;52.764;6.896;2022-07-01T10:40:57;9.45;;;5.50;;
59302;SDS011;45074;52.764;6.896;2022-07-01T10:43:35;8.00;;;5.35;;
59302;SDS011;45074;52.764;6.896;2022-07-01T10:46:01;9.25;;;5.85;;
59302;SDS011;45074;52.764;6.896;2022-07-01T10:48:31;10.65;;;5.90;;
59302;SDS011;45074;52.764;6.896;2022-07-01T10:50:57;10.33;;;5.43;;
59302;SDS011;45074;52.764;6.896;2022-07-01T10:53:23;9.32;;;5.20;;
59302;SDS011;45074;52.764;6.896;2022-07-01T10:55:50;9.48;;;5.20;;
59302;SDS011;45074;52.764;6.896;2022-07-01T10:58:17;8.82;;;5.10;;
59302;SDS011;45074;52.764;6.896;2022-07-01T11:00:46;7.57;;;4.45;;
59302;SDS011;45074;52.764;6.896;2022-07-01T11:03:16;8.00;;;4.55;;
59302;SDS011;45074;52.764;6.896;2022-07-01T11:05:43;8.80;;;5.03;;
59302;SDS011;45074;52.764;6.896;2022-07-01T11:08:10;9.98;;;4.63;;
59302;SDS011;45074;52.764;6.896;2022-07-01T11:10:37;8.55;;;4.68;;
59302;SDS011;45074;52.764;6.896;2022-07-01T11:13:04;11.35;;;4.82;;
59302;SDS011;45074;52.764;6.896;2022-07-01T11:15:30;9.77;;;5.07;;
59302;SDS011;45074;52.764;6.896;2022-07-01T11:17:57;7.55;;;4.60;;
59302;SDS011;45074;52.764;6.896;2022-07-01T11:20:24;7.20;;;4.68;;
59302;SDS011;45074;52.764;6.896;2022-07-01T11:22:50;9.65;;;4.32;;
59302;SDS011;45074;52.764;6.896;2022-07-01T11:25:17;7.35;;;4.00;;
59302;SDS011;45074;52.764;6.896;2022-07-01T11:27:47;7.85;;;3.47;;
59302;SDS011;45074;52.764;6.896;2022-07-01T11:30:14;5.95;;;3.70;;
59302;SDS011;45074;52.764;6.896;2022-07-01T11:32:41;6.78;;;3.70;;
59302;SDS011;45074;52.764;6.896;2022-07-01T11:35:08;8.27;;;3.95;;
59302;SDS011;45074;52.764;6.896;2022-07-01T11:38:07;7.40;;;4.07;;
59302;SDS011;45074;52.764;6.896;2022-07-01T11:40:52;7.53;;;4.30;;
59302;SDS011;45074;52.764;6.896;2022-07-01T11:43:22;8.23;;;4.35;;
59302;SDS011;45074;52.764;6.896;2022-07-01T11:45:49;7.75;;;4.00;;
59302;SDS011;45074;52.764;6.896;2022-07-01T11:51:01;6.93;;;3.60;;
59302;SDS011;45074;52.764;6.896;2022-07-01T11:53:27;9.35;;;3.97;;
59302;SDS011;45074;52.764;6.896;2022-07-01T11:55:54;7.25;;;3.08;;
59302;SDS011;45074;52.764;6.896;2022-07-01T11:58:20;8.07;;;3.35;;
59302;SDS011;45074;52.764;6.896;2022-07-01T12:00:46;9.43;;;4.15;;
59302;SDS011;45074;52.764;6.896;2022-07-01T12:03:13;8.25;;;3.85;;
59302;SDS011;45074;52.764;6.896;2022-07-01T12:05:39;6.90;;;4.07;;
59302;SDS011;45074;52.764;6.896;2022-07-01T12:08:05;6.55;;;4.07;;
59302;SDS011;45074;52.764;6.896;2022-07-01T12:10:31;6.32;;;3.53;;
59302;SDS011;45074;52.764;6.896;2022-07-01T12:12:58;8.73;;;3.83;;
59302;SDS011;45074;52.764;6.896;2022-07-01T12:15:24;6.90;;;3.25;;
59302;SDS011;45074;52.764;6.896;2022-07-01T12:17:50;7.75;;;3.15;;
59302;SDS011;45074;52.764;6.896;2022-07-01T12:20:30;7.50;;;3.30;;
59302;SDS011;45074;52.764;6.896;2022-07-01T12:23:10;5.60;;;3.03;;
59302;SDS011;45074;52.764;6.896;2022-07-01T12:25:36;6.68;;;3.22;;
59302;SDS011;45074;52.764;6.896;2022-07-01T12:28:04;8.20;;;2.97;;
59302;SDS011;45074;52.764;6.896;2022-07-01T12:30:30;4.97;;;2.50;;
59302;SDS011;45074;52.764;6.896;2022-07-01T12:32:58;5.68;;;2.72;;
59302;SDS011;45074;52.764;6.896;2022-07-01T12:35:33;5.50;;;2.58;;
59302;SDS011;45074;52.764;6.896;2022-07-01T12:37:59;5.32;;;2.10;;
59302;SDS011;45074;52.764;6.896;2022-07-01T12:40:26;5.68;;;2.05;;
59302;SDS011;45074;52.764;6.896;2022-07-01T12:42:53;5.60;;;2.00;;
59302;SDS011;45074;52.764;6.896;2022-07-01T12:45:23;5.65;;;2.20;;
59302;SDS011;45074;52.764;6.896;2022-07-01T12:47:50;6.03;;;2.00;;
59302;SDS011;45074;52.764;6.896;2022-07-01T12:55:23;6.20;;;2.00;;
59302;SDS011;45074;52.764;6.896;2022-07-01T12:57:50;4.03;;;1.70;;
59302;SDS011;45074;52.764;6.896;2022-07-01T13:00:17;6.03;;;1.80;;
59302;SDS011;45074;52.764;6.896;2022-07-01T13:02:44;3.65;;;1.80;;
59302;SDS011;45074;52.764;6.896;2022-07-01T13:05:10;4.55;;;2.00;;
59302;SDS011;45074;52.764;6.896;2022-07-01T13:07:37;6.05;;;2.33;;
59302;SDS011;45074;52.764;6.896;2022-07-01T13:10:03;6.15;;;1.77;;
59302;SDS011;45074;52.764;6.896;2022-07-01T13:12:29;5.90;;;1.80;;
59302;SDS011;45074;52.764;6.896;2022-07-01T13:14:56;5.30;;;1.83;;
59302;SDS011;45074;52.764;6.896;2022-07-01T13:17:26;4.93;;;1.90;;
59302;SDS011;45074;52.764;6.896;2022-07-01T13:19:52;5.40;;;1.75;;
59302;SDS011;45074;52.764;6.896;2022-07-01T13:22:18;6.38;;;1.80;;
59302;SDS011;45074;52.764;6.896;2022-07-01T13:24:44;8.48;;;2.10;;
59302;SDS011;45074;52.764;6.896;2022-07-01T13:27:10;6.97;;;2.33;;
59302;SDS011;45074;52.764;6.896;2022-07-01T13:29:37;5.10;;;1.80;;
59302;SDS011;45074;52.764;6.896;2022-07-01T13:32:03;6.65;;;1.90;;
59302;SDS011;45074;52.764;6.896;2022-07-01T13:34:29;7.18;;;2.17;;
59302;SDS011;45074;52.764;6.896;2022-07-01T13:36:56;6.18;;;2.00;;
59302;SDS011;45074;52.764;6.896;2022-07-01T13:39:22;5.47;;;2.08;;
59302;SDS011;45074;52.764;6.896;2022-07-01T13:41:48;6.50;;;2.30;;
59302;SDS011;45074;52.764;6.896;2022-07-01T13:44:14;4.85;;;1.88;;
59302;SDS011;45074;52.764;6.896;2022-07-01T13:46:40;7.00;;;2.22;;
59302;SDS011;45074;52.764;6.896;2022-07-01T13:49:06;5.78;;;2.35;;
59302;SDS011;45074;52.764;6.896;2022-07-01T13:51:33;4.95;;;1.80;;
59302;SDS011;45074;52.764;6.896;2022-07-01T13:53:59;5.72;;;1.80;;
59302;SDS011;45074;52.764;6.896;2022-07-01T13:56:26;6.60;;;1.60;;
59302;SDS011;45074;52.764;6.896;2022-07-01T13:58:52;4.65;;;1.90;;
59302;SDS011;45074;52.764;6.896;2022-07-01T14:01:19;6.47;;;1.90;;
59302;SDS011;45074;52.764;6.896;2022-07-01T14:03:48;3.97;;;1.80;;
59302;SDS011;45074;52.764;6.896;2022-07-01T14:06:14;4.13;;;1.50;;
59302;SDS011;45074;52.764;6.896;2022-07-01T14:08:40;5.82;;;1.98;;
59302;SDS011;45074;52.764;6.896;2022-07-01T14:11:06;5.85;;;1.80;;
59302;SDS011;45074;52.764;6.896;2022-07-01T14:13:32;4.55;;;1.88;;
59302;SDS011;45074;52.764;6.896;2022-07-01T14:16:02;8.15;;;1.88;;
59302;SDS011;45074;52.764;6.896;2022-07-01T14:18:31;5.65;;;1.90;;
59302;SDS011;45074;52.764;6.896;2022-07-01T14:20:57;3.75;;;1.55;;
59302;SDS011;45074;52.764;6.896;2022-07-01T14:23:23;8.00;;;1.80;;
59302;SDS011;45074;52.764;6.896;2022-07-01T14:25:49;4.50;;;1.80;;
59302;SDS011;45074;52.764;6.896;2022-07-01T14:28:15;5.95;;;1.50;;
59302;SDS011;45074;52.764;6.896;2022-07-01T14:30:42;5.68;;;1.60;;
59302;SDS011;45074;52.764;6.896;2022-07-01T14:33:08;5.97;;;1.50;;
59302;SDS011;45074;52.764;6.896;2022-07-01T14:35:34;3.60;;;1.30;;
59302;SDS011;45074;52.764;6.896;2022-07-01T14:38:00;6.03;;;1.67;;
59302;SDS011;45074;52.764;6.896;2022-07-01T14:40:26;5.40;;;1.38;;
59302;SDS011;45074;52.764;6.896;2022-07-01T14:42:52;5.32;;;1.50;;
59302;SDS011;45074;52.764;6.896;2022-07-01T14:45:18;4.57;;;1.48;;
59302;SDS011;45074;52.764;6.896;2022-07-01T14:47:45;3.00;;;1.40;;
59302;SDS011;45074;52.764;6.896;2022-07-01T14:50:11;7.53;;;1.35;;